This is the latest recevied weather packets stored in our database for station/object OM6ABF-11. If no packets are shown the sender has not sent any weather packets the latest 10 day(s).
| Time | Temp. | Humidity | Pressure | Rain* | Wind** | Luminosity | Snow |
|---|---|---|---|---|---|---|---|
| 1777315415 | 9.44° C | 36% | 1021.3 hPa | - | - | - | - |
| 1777314517 | 10° C | 36% | 1021.2 hPa | - | - | - | - |
| 1777313619 | 10.56° C | 34% | 1021 hPa | - | - | - | - |
| 1777312719 | 10.56° C | 34% | 1020.8 hPa | - | - | - | - |
| 1777311820 | 11.67° C | 33% | 1020.7 hPa | - | - | - | - |
| 1777310922 | 12.22° C | 30% | 1020.5 hPa | - | - | - | - |
| 1777310023 | 12.22° C | 31% | 1020.5 hPa | - | - | - | - |
| 1777309124 | 14.44° C | 28% | 1020.3 hPa | - | - | - | - |
| 1777308227 | 15.56° C | 29% | 1020.4 hPa | - | - | - | - |
| 1777307329 | 16.67° C | 25% | 1020.3 hPa | - | - | - | - |
| 1777306429 | 16.67° C | 24% | 1020.4 hPa | - | - | - | - |
| 1777305531 | 17.78° C | 24% | 1020.4 hPa | - | - | - | - |
| 1777304631 | 18.33° C | 23% | 1020.6 hPa | - | - | - | - |
| 1777303731 | 16.67° C | 25% | 1020.7 hPa | - | - | - | - |
| 1777302831 | 16.67° C | 24% | 1020.8 hPa | - | - | - | - |
| 1777301933 | 18.33° C | 22% | 1021 hPa | - | - | - | - |
| 1777301034 | 17.78° C | 22% | 1020.9 hPa | - | - | - | - |
| 1777300137 | 20.56° C | 19% | 1021.2 hPa | - | - | - | - |
| 1777299237 | 17.22° C | 22% | 1021.4 hPa | - | - | - | - |
| 1777298337 | 18.89° C | 20% | 1021.2 hPa | - | - | - | - |
| 1777297437 | 18.33° C | 22% | 1021.4 hPa | - | - | - | - |
| 1777296538 | 18.89° C | 20% | 1021.5 hPa | - | - | - | - |
| 1777295639 | 18.89° C | 22% | 1021.7 hPa | - | - | - | - |
| 1777294740 | 18.89° C | 19% | 1021.9 hPa | - | - | - | - |
| 1777293841 | 17.22° C | 20% | 1022.1 hPa | - | - | - | - |
* Rain since midnight (hover to see other rain measurements)
** Current wind speed in m/s (hover to see current wind gust speed)